Time;durP1;ratioP1;P1;durP2;ratioP2;P2;SDS_P1;SDS_P2;PMS_P1;PMS_P2;Temp;Humidity;BMP_temperature;BMP_pressure;BME280_temperature;BME280_humidity;BME280_pressure;Samples;Min_cycle;Max_cycle;Signal;HPM_P1;HPM_P2
2023/06/05 00:00:49;;;;;;;4.60;1.30;;;31.00;99.90;;;;;;4986162;28;20039;-56
2023/06/05 00:03:17;;;;;;;3.47;1.10;;;31.00;99.90;;;;;;4986631;28;20070;-51
2023/06/05 00:05:45;;;;;;;3.72;1.30;;;31.00;99.90;;;;;;4986283;28;20035;-54
2023/06/05 00:08:12;;;;;;;4.13;1.33;;;31.00;99.90;;;;;;4986085;28;20026;-51
2023/06/05 00:10:38;;;;;;;5.40;1.40;;;31.00;99.90;;;;;;4986200;28;20023;-54
2023/06/05 00:13:05;;;;;;;7.18;2.00;;;31.20;99.90;;;;;;4984319;28;20231;-53
2023/06/05 00:15:35;;;;;;;3.65;1.88;;;31.30;99.90;;;;;;4978639;28;20035;-53
2023/06/05 00:18:03;;;;;;;7.65;2.33;;;31.30;99.90;;;;;;4976722;28;20155;-55
2023/06/05 00:20:30;;;;;;;6.95;1.92;;;31.30;99.90;;;;;;4986056;28;20034;-53
2023/06/05 00:22:56;;;;;;;6.50;2.20;;;31.30;99.90;;;;;;4985764;28;20053;-53
2023/06/05 00:25:23;;;;;;;5.68;2.13;;;31.30;99.90;;;;;;4986056;28;20051;-54
2023/06/05 00:27:51;;;;;;;3.35;1.23;;;31.40;99.90;;;;;;4986121;28;20034;-50
2023/06/05 00:30:18;;;;;;;5.78;1.45;;;31.30;99.90;;;;;;4985783;28;20058;-56
2023/06/05 00:32:44;;;;;;;3.22;1.92;;;31.30;99.90;;;;;;4985941;28;20019;-56
2023/06/05 00:35:11;;;;;;;5.55;3.00;;;31.30;99.90;;;;;;4985918;28;20050;-56
2023/06/05 00:37:37;;;;;;;5.88;3.88;;;31.40;99.90;;;;;;4985342;28;20014;-55
2023/06/05 00:40:05;;;;;;;8.55;4.20;;;31.40;99.90;;;;;;4985645;28;20030;-59
2023/06/05 00:42:32;;;;;;;10.18;5.53;;;31.40;99.90;;;;;;4968649;28;20222;-55
2023/06/05 00:44:58;;;;;;;9.18;5.50;;;31.40;99.90;;;;;;4985481;28;20327;-59
2023/06/05 00:47:25;;;;;;;8.95;2.97;;;31.60;99.90;;;;;;4981331;28;20027;-55
2023/06/05 00:49:52;;;;;;;4.88;2.30;;;31.70;99.90;;;;;;4974084;28;20043;-58
2023/06/05 00:52:19;;;;;;;7.03;1.60;;;31.60;99.90;;;;;;4985113;28;20310;-53
2023/06/05 00:54:46;;;;;;;3.35;1.70;;;31.50;99.90;;;;;;4985283;28;20062;-60
2023/06/05 00:57:16;;;;;;;3.97;1.63;;;31.50;99.90;;;;;;4985037;28;20398;-63
2023/06/05 00:59:44;;;;;;;6.38;1.65;;;31.40;99.90;;;;;;4985213;28;20034;-67
2023/06/05 01:02:14;;;;;;;4.85;1.35;;;31.20;99.90;;;;;;4985299;28;20061;-56
2023/06/05 01:04:43;;;;;;;4.57;1.30;;;31.10;99.90;;;;;;4985376;28;20043;-59
2023/06/05 01:07:14;;;;;;;5.82;1.45;;;31.00;99.90;;;;;;4984827;28;20027;-56
2023/06/05 01:09:42;;;;;;;5.32;1.75;;;31.00;99.90;;;;;;4985287;28;20023;-54
2023/06/05 01:12:15;;;;;;;6.93;2.13;;;31.00;99.90;;;;;;4985115;28;20033;-54
2023/06/05 01:14:47;;;;;;;7.40;1.80;;;31.00;99.90;;;;;;4985357;28;20327;-54
2023/06/05 01:17:18;;;;;;;3.42;1.60;;;31.00;99.90;;;;;;4985103;28;20069;-56
2023/06/05 01:19:49;;;;;;;5.15;1.70;;;31.10;99.90;;;;;;4984935;28;20026;-54
2023/06/05 01:22:16;;;;;;;8.45;1.70;;;31.10;99.90;;;;;;4984558;28;20215;-57
2023/06/05 01:24:42;;;;;;;3.20;1.45;;;31.20;99.90;;;;;;4985134;28;20030;-56
2023/06/05 01:27:17;;;;;;;3.28;1.42;;;31.20;99.90;;;;;;4974239;28;20339;-59
2023/06/05 01:29:53;;;;;;;6.60;1.30;;;31.10;99.90;;;;;;4981906;28;20063;-55
2023/06/05 01:32:36;;;;;;;3.75;1.23;;;30.90;99.90;;;;;;4972554;28;20041;-57
2023/06/05 01:35:09;;;;;;;5.18;1.50;;;30.50;99.90;;;;;;4977537;28;20089;-58
2023/06/05 01:37:40;;;;;;;2.13;0.98;;;30.20;99.90;;;;;;4984482;28;20163;-53
2023/06/05 01:40:24;;;;;;;3.58;1.02;;;29.90;99.90;;;;;;4984885;28;20081;-55
2023/06/05 01:42:53;;;;;;;1.67;1.00;;;29.70;99.90;;;;;;4984825;28;20300;-57
2023/06/05 01:45:20;;;;;;;3.83;0.90;;;29.70;99.90;;;;;;4985080;28;20042;-55
2023/06/05 01:47:48;;;;;;;3.13;1.15;;;29.70;99.90;;;;;;4984872;28;20034;-55
2023/06/05 01:50:14;;;;;;;1.05;0.90;;;29.60;99.90;;;;;;4984817;28;20026;-55
2023/06/05 01:52:42;;;;;;;1.08;0.80;;;29.50;99.90;;;;;;4984516;28;20049;-56
2023/06/05 01:55:23;;;;;;;1.35;0.80;;;29.30;99.90;;;;;;4984652;28;20246;-53
2023/06/05 01:57:50;;;;;;;2.50;0.80;;;29.20;99.90;;;;;;4984625;28;20114;-57
2023/06/05 02:00:17;;;;;;;1.83;0.90;;;29.10;99.90;;;;;;4984651;28;20030;-56
2023/06/05 02:02:48;;;;;;;3.08;0.98;;;29.10;99.90;;;;;;4984684;28;20027;-56
2023/06/05 02:05:15;;;;;;;2.63;0.80;;;29.10;99.90;;;;;;4984838;28;20106;-56
2023/06/05 02:07:54;;;;;;;4.13;1.08;;;29.10;99.90;;;;;;4984602;28;20260;-57
2023/06/05 02:10:23;;;;;;;2.42;0.95;;;29.10;99.90;;;;;;4977341;28;20109;-60
2023/06/05 02:12:50;;;;;;;2.45;0.98;;;29.20;99.90;;;;;;4965368;29;20038;-61
2023/06/05 02:15:17;;;;;;;2.90;1.15;;;29.50;99.90;;;;;;4965249;29;20027;-60
2023/06/05 02:17:45;;;;;;;3.10;1.10;;;29.60;99.90;;;;;;4967291;28;20023;-58
2023/06/05 02:20:17;;;;;;;2.67;1.23;;;29.60;99.90;;;;;;4973544;28;20124;-59
2023/06/05 02:22:49;;;;;;;7.25;1.70;;;29.70;99.90;;;;;;4967523;28;20026;-62
2023/06/05 02:25:18;;;;;;;;;;;29.70;99.60;;;;;;4974203;28;20038;-58
2023/06/05 02:27:45;;;;;;;2.65;1.00;;;29.60;99.30;;;;;;4970870;28;19913;-58
2023/06/05 02:30:12;;;;;;;5.78;1.17;;;29.60;99.10;;;;;;4984381;28;20027;-58
2023/06/05 02:32:43;;;;;;;3.90;1.52;;;29.60;98.90;;;;;;4984548;28;20041;-58
2023/06/05 02:35:11;;;;;;;5.30;1.35;;;29.60;98.80;;;;;;4984201;28;20045;-65
2023/06/05 02:37:43;;;;;;;5.30;1.48;;;29.60;98.70;;;;;;4984195;28;20023;-63
2023/06/05 02:40:13;;;;;;;4.88;1.55;;;29.60;98.60;;;;;;4984745;28;20022;-61
2023/06/05 02:42:40;;;;;;;4.28;1.60;;;29.60;98.80;;;;;;4987965;28;20097;-61
2023/06/05 02:45:08;;;;;;;3.30;1.50;;;29.60;98.60;;;;;;4987668;28;20031;-59
2023/06/05 02:47:36;;;;;;;4.57;1.40;;;29.60;98.40;;;;;;4987785;28;20026;-59
2023/06/05 02:50:03;;;;;;;6.18;1.63;;;29.60;98.50;;;;;;4974236;28;20042;-61
2023/06/05 02:52:32;;;;;;;4.90;1.50;;;29.60;98.50;;;;;;4977285;28;20027;-61
2023/06/05 02:54:59;;;;;;;5.03;1.48;;;29.70;98.50;;;;;;4969549;28;20074;-62
2023/06/05 02:57:26;;;;;;;6.05;1.92;;;29.70;98.40;;;;;;4968050;29;20046;-59
2023/06/05 02:59:55;;;;;;;5.38;2.45;;;29.70;98.40;;;;;;4968226;28;20235;-61
2023/06/05 03:02:22;;;;;;;5.82;1.80;;;29.70;98.50;;;;;;4977881;28;20046;-61
2023/06/05 03:04:53;;;;;;;5.05;2.00;;;29.60;98.30;;;;;;4987588;28;20047;-60
2023/06/05 03:07:22;;;;;;;7.03;1.90;;;29.70;98.50;;;;;;4987332;28;20023;-59
2023/06/05 03:09:49;;;;;;;5.60;2.10;;;29.70;98.40;;;;;;4987387;28;20027;-62
2023/06/05 03:12:15;;;;;;;10.50;2.80;;;29.70;98.50;;;;;;4980465;28;20086;-64
2023/06/05 03:14:42;;;;;;;11.10;2.92;;;29.70;98.40;;;;;;4976311;28;20033;-64
2023/06/05 03:17:08;;;;;;;8.75;2.92;;;29.60;98.30;;;;;;4968012;29;20024;-61
2023/06/05 03:19:35;;;;;;;5.85;2.13;;;29.60;98.30;;;;;;4967540;29;20114;-66
2023/06/05 03:22:01;;;;;;;5.93;1.95;;;29.50;98.10;;;;;;4967620;29;20095;-61
2023/06/05 03:24:28;;;;;;;6.95;1.92;;;29.50;98.10;;;;;;4967973;29;20031;-59
2023/06/05 03:26:54;;;;;;;4.38;1.40;;;29.40;97.90;;;;;;4967730;29;20038;-63
2023/06/05 03:29:21;;;;;;;6.00;1.98;;;29.40;97.70;;;;;;4968165;29;20027;-60
2023/06/05 03:31:47;;;;;;;8.35;2.08;;;29.20;97.60;;;;;;4967776;29;20099;-61
2023/06/05 03:34:14;;;;;;;6.88;2.40;;;29.10;97.60;;;;;;4972213;28;20110;-63
2023/06/05 03:36:40;;;;;;;6.38;1.98;;;29.20;97.60;;;;;;4985742;28;20033;-62
2023/06/05 03:39:07;;;;;;;6.30;1.67;;;29.20;97.80;;;;;;4987411;28;20079;-62
2023/06/05 03:41:35;;;;;;;8.75;2.45;;;29.20;97.70;;;;;;4986887;28;20246;-59
2023/06/05 03:44:03;;;;;;;9.88;2.40;;;29.20;97.80;;;;;;4987058;28;20183;-59
2023/06/05 03:46:30;;;;;;;6.13;1.95;;;29.10;97.80;;;;;;4986841;28;20081;-63
2023/06/05 03:48:59;;;;;;;5.95;2.25;;;29.20;97.90;;;;;;4987021;28;20106;-60
2023/06/05 03:51:29;;;;;;;8.27;2.20;;;29.20;98.00;;;;;;4986254;28;20053;-60
2023/06/05 03:53:58;;;;;;;6.72;2.13;;;29.20;98.00;;;;;;4986396;28;20033;-63
2023/06/05 03:56:33;;;;;;;6.18;1.75;;;29.10;97.80;;;;;;4986314;28;20352;-63
2023/06/05 03:59:09;;;;;;;5.70;1.70;;;29.20;97.90;;;;;;4986870;28;20027;-63
2023/06/05 04:01:38;;;;;;;6.47;1.80;;;29.20;97.80;;;;;;4986410;28;20038;-61
2023/06/05 04:04:05;;;;;;;6.93;1.92;;;29.20;97.90;;;;;;4982307;28;20031;-62
2023/06/05 04:06:36;;;;;;;4.97;2.00;;;29.20;97.80;;;;;;4977638;28;20035;-63
2023/06/05 04:09:10;;;;;;;7.43;1.77;;;29.20;97.80;;;;;;4986604;28;20023;-64
2023/06/05 04:11:47;;;;;;;4.78;1.60;;;29.20;97.80;;;;;;4986363;28;20222;-63
2023/06/05 04:14:14;;;;;;;4.97;1.80;;;29.10;97.90;;;;;;4986649;28;20041;-60
2023/06/05 04:16:42;;;;;;;4.07;2.00;;;29.10;97.90;;;;;;4986356;28;20026;-63
2023/06/05 04:19:13;;;;;;;4.03;1.60;;;29.10;97.90;;;;;;4986370;28;20026;-62
2023/06/05 04:21:40;;;;;;;4.25;1.70;;;29.20;97.90;;;;;;4985970;28;20030;-58
2023/06/05 04:24:10;;;;;;;5.43;1.50;;;29.20;97.90;;;;;;4986495;28;20278;-62
2023/06/05 04:26:45;;;;;;;4.78;1.60;;;29.10;97.90;;;;;;4985999;28;20077;-63
2023/06/05 04:29:16;;;;;;;3.17;1.40;;;29.20;98.00;;;;;;4986263;28;20031;-65
2023/06/05 04:31:44;;;;;;;3.47;1.40;;;29.20;97.90;;;;;;4986191;28;20109;-62
2023/06/05 04:34:10;;;;;;;2.55;1.20;;;29.20;98.00;;;;;;4985623;28;20038;-62
2023/06/05 04:36:37;;;;;;;5.68;1.30;;;29.30;98.00;;;;;;4985661;28;20073;-61
2023/06/05 04:39:06;;;;;;;6.07;1.35;;;29.30;98.00;;;;;;4986274;28;20050;-62
2023/06/05 04:41:36;;;;;;;2.97;1.17;;;29.30;98.10;;;;;;4985762;28;20035;-61
2023/06/05 04:44:02;;;;;;;4.60;1.45;;;29.30;98.10;;;;;;4985948;28;20037;-60
2023/06/05 04:46:29;;;;;;;5.20;1.38;;;29.30;98.10;;;;;;4985635;28;20031;-63
2023/06/05 04:48:57;;;;;;;2.95;1.00;;;29.30;98.10;;;;;;4986015;28;20043;-62
2023/06/05 04:51:24;;;;;;;3.83;1.25;;;29.30;98.10;;;;;;4981064;28;20070;-62
2023/06/05 04:53:52;;;;;;;2.40;1.00;;;29.40;98.20;;;;;;4977119;28;20036;-62
2023/06/05 04:56:23;;;;;;;3.83;1.00;;;29.30;98.10;;;;;;4985242;28;20395;-60
2023/06/05 04:58:51;;;;;;;2.80;0.90;;;29.30;98.10;;;;;;4985838;28;20042;-60
2023/06/05 05:01:17;;;;;;;2.90;1.00;;;29.30;98.00;;;;;;4979245;28;20050;-61
2023/06/05 05:03:46;;;;;;;4.22;1.20;;;29.30;98.10;;;;;;4970927;28;20031;-68
2023/06/05 05:06:16;;;;;;;1.75;1.00;;;29.30;98.10;;;;;;4966016;29;20113;-60
2023/06/05 05:08:46;;;;;;;3.97;0.93;;;29.30;98.00;;;;;;4966295;29;20023;-61
2023/06/05 05:11:13;;;;;;;3.22;0.70;;;29.30;98.10;;;;;;4965817;29;20038;-62
2023/06/05 05:13:40;;;;;;;2.03;0.63;;;29.30;98.00;;;;;;4966061;29;20207;-61
2023/06/05 05:16:07;;;;;;;2.65;0.90;;;29.20;98.10;;;;;;4965969;29;20023;-62
2023/06/05 05:18:36;;;;;;;1.85;0.75;;;29.30;98.10;;;;;;4965703;29;20204;-62
2023/06/05 05:21:04;;;;;;;3.80;0.90;;;29.30;98.10;;;;;;4965934;29;20023;-59
2023/06/05 05:23:32;;;;;;;2.38;0.93;;;29.30;98.20;;;;;;4966059;29;20086;-62
2023/06/05 05:25:58;;;;;;;3.45;0.98;;;29.30;98.20;;;;;;4965631;29;20089;-62
2023/06/05 05:28:25;;;;;;;5.70;1.33;;;29.30;98.20;;;;;;4965898;29;20031;-63
2023/06/05 05:30:52;;;;;;;5.15;0.85;;;29.30;98.30;;;;;;4965669;29;20078;-58
2023/06/05 05:33:21;;;;;;;2.75;0.77;;;29.30;98.30;;;;;;4965612;29;20038;-59
2023/06/05 05:35:47;;;;;;;4.18;0.82;;;29.30;98.30;;;;;;4965547;29;20023;-59
2023/06/05 05:38:14;;;;;;;3.63;0.80;;;29.30;98.30;;;;;;4965897;29;20030;-61
2023/06/05 05:40:40;;;;;;;2.22;1.00;;;29.30;98.30;;;;;;4965414;29;20353;-61
2023/06/05 05:43:07;;;;;;;3.70;0.80;;;29.40;98.30;;;;;;4965890;29;20023;-60
2023/06/05 05:45:36;;;;;;;2.85;0.85;;;29.30;98.30;;;;;;4965548;29;20023;-63
2023/06/05 05:48:03;;;;;;;4.25;0.80;;;29.30;98.20;;;;;;4965521;29;20027;-62
2023/06/05 05:50:29;;;;;;;4.03;0.80;;;29.30;98.10;;;;;;4965558;29;20030;-63
2023/06/05 05:52:56;;;;;;;3.33;0.88;;;29.30;98.20;;;;;;4965647;29;20031;-63
2023/06/05 05:55:22;;;;;;;1.98;0.63;;;29.20;98.10;;;;;;4965284;29;20039;-61
2023/06/05 05:57:49;;;;;;;3.17;1.00;;;29.20;98.10;;;;;;4969953;28;20049;-63
2023/06/05 06:00:16;;;;;;;2.95;0.82;;;29.20;98.10;;;;;;4978831;28;20088;-60
2023/06/05 06:02:43;;;;;;;2.78;0.70;;;29.20;98.10;;;;;;4965266;29;20106;-58
2023/06/05 06:05:09;;;;;;;3.67;0.85;;;29.20;98.20;;;;;;4965285;29;20122;-60
2023/06/05 06:07:36;;;;;;;3.67;0.88;;;29.20;98.10;;;;;;4965418;29;20028;-59
2023/06/05 06:10:03;;;;;;;2.63;0.50;;;29.20;98.10;;;;;;4965244;29;20035;-61
2023/06/05 06:12:29;;;;;;;3.67;0.85;;;29.20;98.10;;;;;;4965228;29;20047;-60
2023/06/05 06:14:56;;;;;;;1.60;0.55;;;29.20;98.10;;;;;;4965379;28;20074;-63
2023/06/05 06:17:23;;;;;;;2.67;0.65;;;29.20;98.10;;;;;;4978607;28;20334;-63
2023/06/05 06:19:50;;;;;;;4.47;0.65;;;29.20;98.10;;;;;;4988086;28;20023;-63
2023/06/05 06:22:17;;;;;;;1.88;0.60;;;29.10;98.00;;;;;;4988187;28;20026;-60
2023/06/05 06:24:43;;;;;;;2.33;0.50;;;29.10;98.00;;;;;;4988286;28;20393;-57
2023/06/05 06:27:12;;;;;;;2.85;0.57;;;29.10;98.00;;;;;;4988020;28;20302;-66
2023/06/05 06:29:59;;;;;;;2.30;0.60;;;29.10;98.00;;;;;;4976316;28;20033;-63
2023/06/05 06:32:28;;;;;;;2.35;0.50;;;29.10;98.00;;;;;;4987968;28;20038;-65
2023/06/05 06:34:56;;;;;;;3.60;0.60;;;29.10;98.00;;;;;;4987842;28;20026;-64
2023/06/05 06:37:22;;;;;;;3.45;0.60;;;29.00;97.90;;;;;;4987855;28;20050;-64
2023/06/05 06:39:49;;;;;;;3.85;0.60;;;29.00;98.00;;;;;;4987778;28;20326;-62
2023/06/05 06:42:16;;;;;;;2.70;0.50;;;29.00;98.00;;;;;;4988020;28;20023;-63
2023/06/05 06:44:43;;;;;;;2.47;0.60;;;29.00;98.00;;;;;;4987863;28;20331;-62
2023/06/05 06:47:09;;;;;;;2.95;0.60;;;29.00;97.90;;;;;;4987570;28;20058;-63
2023/06/05 06:49:36;;;;;;;3.88;0.75;;;28.90;98.20;;;;;;4987654;28;20035;-63
2023/06/05 06:52:03;;;;;;;2.85;0.43;;;28.90;97.90;;;;;;4987665;28;20041;-64
2023/06/05 06:54:30;;;;;;;2.78;0.50;;;28.90;97.90;;;;;;4987367;28;20038;-61
2023/06/05 06:56:57;;;;;;;2.58;0.45;;;29.00;97.90;;;;;;4987292;28;20102;-64
2023/06/05 06:59:24;;;;;;;2.70;0.43;;;29.00;98.00;;;;;;4988328;28;20029;-60
2023/06/05 07:02:17;;;;;;;3.38;0.60;;;29.00;98.00;;;;;;4987331;28;20274;-58
2023/06/05 07:04:44;;;;;;;1.77;0.50;;;29.00;98.00;;;;;;4987542;28;20045;-59
2023/06/05 07:07:12;;;;;;;3.50;0.50;;;29.00;98.00;;;;;;4987300;28;20040;-65
2023/06/05 07:09:40;;;;;;;3.95;0.90;;;28.90;98.00;;;;;;4987288;28;20334;-64
2023/06/05 07:12:09;;;;;;;4.53;0.65;;;28.90;97.90;;;;;;4987289;28;20031;-63
2023/06/05 07:14:37;;;;;;;2.88;0.70;;;28.90;97.90;;;;;;4987199;28;20215;-57
2023/06/05 07:17:04;;;;;;;2.30;0.52;;;28.90;97.90;;;;;;4987228;28;20023;-58
2023/06/05 07:19:32;;;;;;;2.20;0.63;;;28.90;97.80;;;;;;4987402;28;20214;-58
2023/06/05 07:21:59;;;;;;;3.50;0.52;;;28.90;97.90;;;;;;4987049;28;20089;-64
2023/06/05 07:24:28;;;;;;;2.70;0.50;;;28.90;97.80;;;;;;4987651;28;20034;-67
2023/06/05 07:26:56;;;;;;;1.60;0.50;;;28.90;97.80;;;;;;4986125;28;20027;-64
2023/06/05 07:29:24;;;;;;;4.78;0.60;;;28.80;97.80;;;;;;4987460;28;20042;-63
2023/06/05 07:31:55;;;;;;;2.10;0.43;;;28.90;97.90;;;;;;4986921;28;20054;-63
2023/06/05 07:34:23;;;;;;;4.65;0.70;;;28.90;97.90;;;;;;4987276;28;20030;-64
2023/06/05 07:36:51;;;;;;;4.53;0.80;;;28.90;97.90;;;;;;4985920;28;20131;-59
2023/06/05 07:39:22;;;;;;;5.13;0.50;;;28.90;97.80;;;;;;4978588;28;20023;-60
2023/06/05 07:41:49;;;;;;;4.72;0.65;;;28.80;97.70;;;;;;4967322;29;20067;-59
2023/06/05 07:44:17;;;;;;;3.97;0.60;;;28.80;97.80;;;;;;4967910;29;20042;-59
2023/06/05 07:46:46;;;;;;;2.25;0.50;;;28.80;97.70;;;;;;4967320;29;20192;-61
2023/06/05 07:49:13;;;;;;;4.93;0.80;;;28.80;97.70;;;;;;4967198;29;20034;-62
2023/06/05 07:51:39;;;;;;;6.50;0.90;;;28.80;97.70;;;;;;4967203;29;20110;-64
2023/06/05 07:54:13;;;;;;;1.67;0.50;;;28.70;97.60;;;;;;4967510;29;20042;-60
2023/06/05 07:56:40;;;;;;;4.38;0.95;;;28.70;97.50;;;;;;4966836;29;20098;-64
2023/06/05 07:59:07;;;;;;;2.58;0.50;;;28.70;97.50;;;;;;4967587;29;20034;-65
2023/06/05 08:01:38;;;;;;;5.43;0.75;;;28.70;97.40;;;;;;4967185;29;20219;-60
2023/06/05 08:04:06;;;;;;;3.78;0.68;;;28.70;97.40;;;;;;4967423;29;20043;-63
2023/06/05 08:06:33;;;;;;;6.00;0.85;;;28.60;97.40;;;;;;4966939;29;20346;-63
2023/06/05 08:09:00;;;;;;;3.80;0.77;;;28.60;97.40;;;;;;4967388;29;20027;-62
2023/06/05 08:11:26;;;;;;;2.65;0.70;;;28.70;97.40;;;;;;4966802;29;20047;-64
2023/06/05 08:13:53;;;;;;;4.25;0.60;;;28.60;97.30;;;;;;4967348;29;20251;-63
2023/06/05 08:16:19;;;;;;;4.45;0.70;;;28.60;97.30;;;;;;4966888;29;20026;-57
2023/06/05 08:18:47;;;;;;;2.13;0.43;;;28.60;97.40;;;;;;4966883;29;20330;-58
2023/06/05 08:21:14;;;;;;;2.30;0.70;;;28.60;97.40;;;;;;4966697;29;20029;-58
2023/06/05 08:23:41;;;;;;;2.60;0.60;;;28.70;97.40;;;;;;4967067;29;20074;-62
2023/06/05 08:26:10;;;;;;;6.05;0.70;;;28.60;97.40;;;;;;4966707;29;20043;-62
2023/06/05 08:28:41;;;;;;;2.75;0.63;;;28.60;97.40;;;;;;4966804;29;20034;-62
2023/06/05 08:31:09;;;;;;;5.00;0.68;;;28.60;97.40;;;;;;4982238;28;20041;-63
2023/06/05 08:33:36;;;;;;;2.45;0.68;;;28.70;97.40;;;;;;4985606;28;20026;-63
2023/06/05 08:36:04;;;;;;;2.58;0.63;;;28.70;97.50;;;;;;4985916;28;20034;-62
2023/06/05 08:38:31;;;;;;;1.52;0.40;;;28.70;97.60;;;;;;4985666;28;20042;-60
2023/06/05 08:41:05;;;;;;;2.08;0.60;;;28.80;97.60;;;;;;4985713;28;20030;-61
2023/06/05 08:43:32;;;;;;;4.05;0.60;;;28.70;97.60;;;;;;4981573;28;20027;-61
2023/06/05 08:45:58;;;;;;;3.00;0.57;;;28.70;97.70;;;;;;4966119;29;20099;-56
2023/06/05 08:48:26;;;;;;;1.63;0.60;;;28.70;97.70;;;;;;4966529;29;20019;-62
2023/06/05 08:50:54;;;;;;;2.33;0.60;;;28.80;97.80;;;;;;4966241;29;20027;-63
2023/06/05 08:53:22;;;;;;;3.45;0.60;;;28.80;97.80;;;;;;4966154;29;20034;-61
2023/06/05 08:55:53;;;;;;;2.83;0.65;;;28.80;97.90;;;;;;4966268;29;20026;-63
2023/06/05 08:58:20;;;;;;;4.20;0.73;;;28.80;97.90;;;;;;4966304;29;20051;-62
2023/06/05 09:00:48;;;;;;;2.03;0.50;;;28.80;97.90;;;;;;4965871;29;20291;-59
2023/06/05 09:03:18;;;;;;;3.20;0.73;;;28.80;98.00;;;;;;4966227;29;20050;-57
2023/06/05 09:05:45;;;;;;;3.03;0.80;;;28.80;98.00;;;;;;4965947;29;20031;-59
2023/06/05 09:08:11;;;;;;;2.30;0.70;;;28.80;98.10;;;;;;4966103;29;20018;-59
2023/06/05 09:10:38;;;;;;;2.00;0.57;;;28.80;98.10;;;;;;4965954;29;20033;-59
2023/06/05 09:13:05;;;;;;;3.10;0.50;;;28.80;98.10;;;;;;4966256;29;20185;-61
2023/06/05 09:15:33;;;;;;;3.40;0.52;;;28.80;98.20;;;;;;4965629;29;20098;-61
2023/06/05 09:18:10;;;;;;;6.28;0.80;;;28.80;98.20;;;;;;4965992;29;20063;-62
2023/06/05 09:20:46;;;;;;;2.63;0.70;;;28.80;98.20;;;;;;4965659;29;20061;-59
2023/06/05 09:23:28;;;;;;;4.63;0.70;;;28.80;98.20;;;;;;4965919;29;20090;-63
2023/06/05 09:25:58;;;;;;;3.83;0.60;;;28.90;98.30;;;;;;4965548;29;20254;-62
2023/06/05 09:28:26;;;;;;;3.30;0.90;;;28.80;98.30;;;;;;4966022;29;20019;-63
2023/06/05 09:31:00;;;;;;;5.15;0.85;;;28.80;98.30;;;;;;4965594;29;20078;-64
2023/06/05 09:33:29;;;;;;;5.25;0.63;;;28.90;98.40;;;;;;4965646;29;20098;-60
2023/06/05 09:36:13;;;;;;;4.25;0.95;;;28.80;98.30;;;;;;4965566;29;20042;-61
2023/06/05 09:38:43;;;;;;;2.22;0.52;;;28.80;98.30;;;;;;4965739;29;20042;-57
2023/06/05 09:41:11;;;;;;;2.45;0.60;;;28.80;98.30;;;;;;4965542;29;20027;-65
2023/06/05 09:43:38;;;;;;;4.63;0.73;;;28.70;98.30;;;;;;4965934;29;20078;-64
2023/06/05 09:46:10;;;;;;;2.92;1.05;;;28.70;98.30;;;;;;4965428;29;20058;-60
2023/06/05 09:48:37;;;;;;;4.65;1.40;;;28.80;98.30;;;;;;4965731;29;20267;-60
2023/06/05 09:51:15;;;;;;;7.55;2.08;;;28.80;98.40;;;;;;4968317;28;20070;-59
2023/06/05 09:53:47;;;;;;;4.85;2.13;;;28.80;98.40;;;;;;4969597;29;20078;-60
2023/06/05 09:56:16;;;;;;;4.78;2.00;;;28.80;98.30;;;;;;4969227;29;20027;-57
2023/06/05 09:58:52;;;;;;;5.25;1.70;;;28.80;98.40;;;;;;4969723;29;20035;-62
2023/06/05 10:01:24;;;;;;;6.13;1.35;;;28.70;98.40;;;;;;4969197;29;20023;-60
2023/06/05 10:04:08;;;;;;;3.05;1.02;;;28.80;98.40;;;;;;4969414;29;20034;-59
2023/06/05 10:06:36;;;;;;;5.43;1.10;;;28.80;98.40;;;;;;4969136;29;20055;-59
2023/06/05 10:09:03;;;;;;;5.15;1.10;;;28.70;98.50;;;;;;4969395;29;20207;-56
2023/06/05 10:11:30;;;;;;;5.50;1.05;;;28.70;98.40;;;;;;4969121;29;20038;-60
2023/06/05 10:14:01;;;;;;;4.43;1.20;;;28.80;98.40;;;;;;4969408;29;20023;-60
2023/06/05 10:16:28;;;;;;;9.40;3.42;;;28.70;98.40;;;;;;4968779;29;20251;-64
2023/06/05 10:18:57;;;;;;;6.00;1.92;;;28.80;98.50;;;;;;4968909;29;20029;-61
2023/06/05 10:21:25;;;;;;;4.53;1.23;;;28.70;98.40;;;;;;4968985;29;20039;-59
2023/06/05 10:24:05;;;;;;;8.38;1.95;;;28.70;98.40;;;;;;4969179;29;20054;-63
2023/06/05 10:27:10;;;;;;;8.65;1.90;;;28.80;98.50;;;;;;4968750;29;20227;-62
2023/06/05 10:30:04;;;;;;;6.75;1.48;;;28.70;98.40;;;;;;4968935;29;20335;-61
2023/06/05 10:32:36;;;;;;;3.78;1.45;;;28.70;98.40;;;;;;4968957;29;20027;-62
2023/06/05 10:35:31;;;;;;;5.00;2.10;;;28.70;98.40;;;;;;4968536;29;20106;-60
2023/06/05 10:38:09;;;;;;;7.93;1.90;;;28.70;98.50;;;;;;4968693;29;20023;-58
2023/06/05 10:40:36;;;;;;;6.85;1.70;;;28.70;98.50;;;;;;4968393;29;20031;-61
2023/06/05 10:43:46;;;;;;;7.93;1.77;;;28.70;98.60;;;;;;4968751;29;20090;-59
2023/06/05 10:46:27;;;;;;;3.47;1.33;;;28.80;98.60;;;;;;4968700;29;20039;-60
2023/06/05 10:49:20;;;;;;;6.18;1.52;;;28.70;98.60;;;;;;4968902;29;20038;-63
2023/06/05 10:51:47;;;;;;;;;;;28.80;98.70;;;;;;4968868;29;20204;-57
2023/06/05 10:54:22;;;;;;;8.40;1.50;;;28.80;98.70;;;;;;4968707;29;19933;-58
2023/06/05 10:59:23;;;;;;;8.45;1.30;;;28.70;98.70;;;;;;4968786;29;20023;-57
2023/06/05 11:02:12;;;;;;;5.57;1.05;;;28.80;98.70;;;;;;4967847;28;20027;-57
2023/06/05 11:04:47;;;;;;;7.53;1.27;;;28.80;98.80;;;;;;4968113;29;20106;-61
2023/06/05 11:07:21;;;;;;;5.95;1.02;;;28.80;98.80;;;;;;4968054;29;20042;-62
2023/06/05 11:10:05;;;;;;;5.80;1.50;;;28.80;98.80;;;;;;4967994;29;20062;-59
2023/06/05 11:12:41;;;;;;;4.93;1.40;;;28.80;98.80;;;;;;4968175;29;20094;-58
2023/06/05 11:15:08;;;;;;;6.68;1.00;;;28.80;98.80;;;;;;4967836;29;20263;-60
2023/06/05 11:17:41;;;;;;;6.05;1.23;;;28.80;98.90;;;;;;4967852;29;20041;-63
2023/06/05 11:20:28;;;;;;;5.68;1.10;;;28.80;98.90;;;;;;4967842;29;20030;-62
2023/06/05 11:22:57;;;;;;;7.20;1.30;;;28.80;98.90;;;;;;4967881;29;20211;-59
2023/06/05 11:25:26;;;;;;;7.55;1.50;;;28.90;99.00;;;;;;4967807;29;20050;-61
2023/06/05 11:28:01;;;;;;;12.43;5.07;;;28.80;98.90;;;;;;4967990;29;20023;-61
2023/06/05 11:30:34;;;;;;;4.38;2.00;;;28.80;99.00;;;;;;4967663;29;20086;-59
2023/06/05 11:33:20;;;;;;;12.73;1.90;;;28.90;99.00;;;;;;4967696;29;20031;-63
2023/06/05 11:35:48;;;;;;;42.63;6.80;;;28.80;99.00;;;;;;4967513;29;20031;-63
2023/06/05 11:38:15;;;;;;;57.03;8.05;;;28.80;98.90;;;;;;4967811;29;20027;-58
2023/06/05 11:40:44;;;;;;;36.10;5.90;;;28.90;99.00;;;;;;4967407;29;20035;-58
2023/06/05 11:43:12;;;;;;;44.15;6.53;;;28.90;99.00;;;;;;4967775;29;20042;-60
2023/06/05 11:45:41;;;;;;;47.75;5.40;;;28.90;99.00;;;;;;4967427;29;20027;-59
2023/06/05 11:48:14;;;;;;;26.98;3.42;;;28.80;99.10;;;;;;4973336;28;20027;-58
2023/06/05 11:51:02;;;;;;;20.00;3.40;;;28.90;99.00;;;;;;4979602;28;20327;-66
2023/06/05 11:53:31;;;;;;;27.23;3.95;;;28.90;99.10;;;;;;4967595;29;20027;-56
2023/06/05 11:58:32;;;;;;;22.67;3.67;;;28.90;99.20;;;;;;4967228;29;20047;-61
2023/06/05 12:01:22;;;;;;;19.80;2.67;;;28.90;99.40;;;;;;4967348;29;20390;-58
2023/06/05 12:04:03;;;;;;;21.67;3.85;;;28.90;99.20;;;;;;4967236;29;20047;-58
2023/06/05 12:06:29;;;;;;;26.73;3.83;;;28.90;99.20;;;;;;4966949;29;20050;-58
2023/06/05 12:09:11;;;;;;;46.45;6.15;;;28.90;99.20;;;;;;4967290;29;20031;-61
2023/06/05 12:11:38;;;;;;;40.20;5.72;;;29.00;99.30;;;;;;4966976;29;20031;-59
2023/06/05 12:14:06;;;;;;;24.13;3.78;;;29.00;99.30;;;;;;4971567;28;20074;-60
2023/06/05 12:16:37;;;;;;;28.77;5.10;;;29.00;99.30;;;;;;4967943;28;20027;-56
2023/06/05 12:19:16;;;;;;;27.17;3.93;;;29.10;99.40;;;;;;4973378;28;20200;-65
2023/06/05 12:21:47;;;;;;;29.80;4.30;;;29.10;99.40;;;;;;4966574;29;20251;-58
2023/06/05 12:24:15;;;;;;;28.65;4.65;;;29.00;99.40;;;;;;4981576;28;20027;-57
2023/06/05 12:26:54;;;;;;;32.70;5.18;;;29.10;99.40;;;;;;4985976;28;20196;-60
2023/06/05 12:29:22;;;;;;;30.85;4.35;;;29.00;99.40;;;;;;4970095;28;20053;-59
2023/06/05 12:31:50;;;;;;;29.65;4.25;;;29.00;99.40;;;;;;4975976;28;20031;-57
2023/06/05 12:34:17;;;;;;;27.38;3.80;;;29.00;99.50;;;;;;4986000;28;20057;-57
2023/06/05 12:36:47;;;;;;;26.67;3.63;;;29.00;99.50;;;;;;4985696;28;20034;-62
2023/06/05 12:39:15;;;;;;;21.98;3.67;;;29.00;99.70;;;;;;4985836;28;20094;-61
2023/06/05 12:41:44;;;;;;;25.00;3.38;;;29.00;99.80;;;;;;4971782;28;20086;-63
2023/06/05 12:44:10;;;;;;;22.83;3.92;;;29.00;99.80;;;;;;4972672;28;20062;-63
2023/06/05 12:46:37;;;;;;;24.92;2.97;;;29.00;99.90;;;;;;4969495;28;20272;-57
2023/06/05 12:49:05;;;;;;;28.90;3.65;;;29.00;99.90;;;;;;4967990;28;20270;-59
2023/06/05 12:51:32;;;;;;;32.83;3.72;;;29.10;99.90;;;;;;4971928;28;20038;-63
2023/06/05 12:53:59;;;;;;;32.95;3.83;;;29.00;99.90;;;;;;4966460;29;20050;-67
2023/06/05 12:56:26;;;;;;;28.58;4.15;;;29.10;99.90;;;;;;4965999;29;20027;-57
2023/06/05 12:58:55;;;;;;;24.10;3.10;;;29.10;99.90;;;;;;4966433;29;20029;-57
2023/06/05 13:01:22;;;;;;;18.10;2.83;;;29.10;99.90;;;;;;4966014;29;20031;-58
2023/06/05 13:03:50;;;;;;;44.95;4.47;;;29.20;99.90;;;;;;4966148;29;20254;-60